TPC506 KGYR-KTUS
Flight info
| Callsign | TPC506 |
|---|---|
| Flight time | N/A |
| Altitude | 9000 |
| Route | |
| Aircraft | AEST/L-SDFG/S |
Departure
| Time | N/A |
|---|---|
| Airport | Phoenix Goodyear Airport (KGYR) |
Arrival
| Time | 2026-04-24 01:08 |
|---|---|
| Airport | Tucson International Airport (KTUS) |
| Time | Latitude | Longitude | Altitude | Speed | Heading |
|---|---|---|---|---|---|
| 2026-04-24 00:59 | 32.39862 | -111.24098 | 8992 ft | 223 kts | 142° |
| 2026-04-24 00:59 | 32.38719 | -111.22852 | 8997 ft | 224 kts | 142° |
| 2026-04-24 01:00 | 32.37586 | -111.21623 | 8993 ft | 223 kts | 142° |
| 2026-04-24 01:00 | 32.36432 | -111.20401 | 8984 ft | 222 kts | 142° |
| 2026-04-24 01:00 | 32.35298 | -111.19200 | 9013 ft | 216 kts | 141° |
| 2026-04-24 01:00 | 32.34177 | -111.17998 | 8857 ft | 221 kts | 142° |
| 2026-04-24 01:01 | 32.33022 | -111.16773 | 8669 ft | 225 kts | 141° |
| 2026-04-24 01:01 | 32.31852 | -111.15514 | 8490 ft | 227 kts | 141° |
| 2026-04-24 01:01 | 32.30677 | -111.14262 | 8331 ft | 229 kts | 141° |
| 2026-04-24 01:01 | 32.29494 | -111.13002 | 8173 ft | 230 kts | 140° |
| 2026-04-24 01:02 | 32.28306 | -111.11719 | 8019 ft | 232 kts | 141° |
| 2026-04-24 01:02 | 32.27099 | -111.10456 | 7872 ft | 231 kts | 143° |
| 2026-04-24 01:02 | 32.25855 | -111.09264 | 7736 ft | 229 kts | 145° |
| 2026-04-24 01:02 | 32.24616 | -111.08075 | 7586 ft | 230 kts | 142° |
| 2026-04-24 01:03 | 32.23266 | -111.07103 | 7485 ft | 226 kts | 162° |
| 2026-04-24 01:03 | 32.21783 | -111.06526 | 7338 ft | 223 kts | 167° |
| 2026-04-24 01:03 | 32.20289 | -111.06072 | 7217 ft | 221 kts | 169° |
| 2026-04-24 01:03 | 32.18805 | -111.05592 | 7079 ft | 221 kts | 166° |
| 2026-04-24 01:04 | 32.17367 | -111.04945 | 6952 ft | 224 kts | 159° |
| 2026-04-24 01:04 | 32.16011 | -111.04024 | 6740 ft | 223 kts | 147° |
| 2026-04-24 01:04 | 32.14799 | -111.02961 | 6526 ft | 219 kts | 144° |
| 2026-04-24 01:04 | 32.13632 | -111.01875 | 6278 ft | 198 kts | 143° |
| 2026-04-24 01:05 | 32.12779 | -111.00678 | 5808 ft | 195 kts | 118° |
| 2026-04-24 01:05 | 32.12270 | -110.99162 | 5555 ft | 188 kts | 108° |
| 2026-04-24 01:05 | 32.11887 | -110.97780 | 5515 ft | 167 kts | 109° |
| 2026-04-24 01:05 | 32.11446 | -110.96661 | 5133 ft | 141 kts | 130° |
| 2026-04-24 01:06 | 32.10866 | -110.95818 | 4807 ft | 130 kts | 134° |
| 2026-04-24 01:06 | 32.10296 | -110.94978 | 4509 ft | 126 kts | 135° |
| 2026-04-24 01:06 | 32.09760 | -110.94227 | 4241 ft | 118 kts | 135° |
| 2026-04-24 01:06 | 32.09270 | -110.93493 | 3983 ft | 111 kts | 129° |
| 2026-04-24 01:07 | 32.08823 | -110.92806 | 3707 ft | 99 kts | 133° |
| 2026-04-24 01:07 | 32.08597 | -110.92048 | 3430 ft | 112 kts | 82° |
| 2026-04-24 01:07 | 32.09001 | -110.91302 | 3438 ft | 109 kts | 11° |
| 2026-04-24 01:07 | 32.09614 | -110.91499 | 3201 ft | 93 kts | 307° |
| 2026-04-24 01:08 | 32.10015 | -110.92081 | 2739 ft | 91 kts | 315° |
| 2026-04-24 01:08 | 32.10379 | -110.92485 | 2610 ft | 61 kts | 302° |
| 2026-04-24 01:08 | 32.10589 | -110.92749 | 2605 ft | 23 kts | 317° |
| 2026-04-24 01:08 | 32.10675 | -110.92790 | 2604 ft | 14 kts | 12° |
| 2026-04-24 01:09 | 32.10724 | -110.92752 | 2604 ft | 0 kts | 39° |
| 2026-04-24 01:09 | 32.10727 | -110.92750 | 2604 ft | 5 kts | 38° |
| 2026-04-24 01:09 | 32.10800 | -110.92777 | 2603 ft | 19 kts | 332° |
| 2026-04-24 01:09 | 32.10900 | -110.92863 | 2602 ft | 16 kts | 319° |
| 2026-04-24 01:10 | 32.11000 | -110.92980 | 2602 ft | 23 kts | 313° |
| 2026-04-24 01:10 | 32.11123 | -110.93121 | 2602 ft | 24 kts | 315° |
| 2026-04-24 01:10 | 32.11230 | -110.93245 | 2603 ft | 22 kts | 317° |
| 2026-04-24 01:10 | 32.11363 | -110.93404 | 2603 ft | 29 kts | 314° |
| 2026-04-24 01:11 | 32.11484 | -110.93548 | 2603 ft | 24 kts | 315° |
| 2026-04-24 01:11 | 32.11600 | -110.93682 | 2602 ft | 21 kts | 314° |
| 2026-04-24 01:11 | 32.11682 | -110.93779 | 2602 ft | 12 kts | 315° |
| 2026-04-24 01:11 | 32.11731 | -110.93835 | 2602 ft | 11 kts | 315° |
| 2026-04-24 01:12 | 32.11799 | -110.93915 | 2602 ft | 15 kts | 315° |
| 2026-04-24 01:12 | 32.11849 | -110.93974 | 2602 ft | 15 kts | 315° |
| 2026-04-24 01:12 | 32.11923 | -110.94061 | 2602 ft | 10 kts | 312° |
| 2026-04-24 01:12 | 32.11958 | -110.94106 | 2602 ft | 16 kts | 315° |
| 2026-04-24 01:13 | 32.12051 | -110.94209 | 2603 ft | 16 kts | 314° |
| 2026-04-24 01:13 | 32.12108 | -110.94282 | 2603 ft | 9 kts | 312° |
| 2026-04-24 01:13 | 32.12142 | -110.94323 | 2603 ft | 6 kts | 315° |
| 2026-04-24 01:13 | 32.12197 | -110.94359 | 2602 ft | 11 kts | 4° |
| 2026-04-24 01:14 | 32.12267 | -110.94304 | 2602 ft | 13 kts | 5° |
| 2026-04-24 01:14 | 32.12308 | -110.94331 | 2602 ft | 0 kts | 278° |
| 2026-04-24 01:16 | 32.12309 | -110.94335 | 2602 ft | 6 kts | 279° |
| 2026-04-24 01:16 | 32.12322 | -110.94394 | 2602 ft | 13 kts | 332° |
| 2026-04-24 01:16 | 32.12442 | -110.94395 | 2603 ft | 16 kts | 357° |
| 2026-04-24 01:16 | 32.12535 | -110.94391 | 2603 ft | 11 kts | 11° |
| 2026-04-24 01:17 | 32.12595 | -110.94357 | 2603 ft | 14 kts | 63° |
| 2026-04-24 01:17 | 32.12670 | -110.94272 | 2604 ft | 10 kts | 2° |
| 2026-04-24 01:17 | 32.12723 | -110.94322 | 2604 ft | 9 kts | 319° |
| 2026-04-24 01:17 | 32.12762 | -110.94321 | 2604 ft | 1 kts | 34° |